Time;durP1;ratioP1;P1;durP2;ratioP2;P2;SDS_P1;SDS_P2;PMS_P1;PMS_P2;Temp;Humidity;BMP_temperature;BMP_pressure;BME280_temperature;BME280_humidity;BME280_pressure;Samples;Min_cycle;Max_cycle;Signal;HPM_P1;HPM_P2
2024/04/23 00:00:43;;;;;;;39.70;37.67;;;;;;;;;;5496982;25;20301;-76
2024/04/23 00:03:29;;;;;;;40.92;38.72;;;;;;;;;;5479104;26;20520;-75
2024/04/23 00:06:14;;;;;;;39.28;37.28;;;;;;;;;;5502900;26;20017;-76
2024/04/23 00:09:00;;;;;;;37.80;35.80;;;;;;;;;;5502376;25;20013;-76
2024/04/23 00:11:45;;;;;;;39.00;37.00;;;;;;;;;;5503273;25;20002;-76
2024/04/23 00:14:31;;;;;;;35.88;34.05;;;;;;;;;;5504204;25;20010;-75
2024/04/23 00:17:17;;;;;;;39.67;37.60;;;;;;;;;;5502393;26;20005;-76
2024/04/23 00:20:02;;;;;;;38.55;36.55;;;;;;;;;;5500084;25;20018;-76
2024/04/23 00:22:48;;;;;;;36.28;34.22;;;;;;;;;;5477543;26;20106;-76
2024/04/23 00:25:34;;;;;;;36.50;34.40;;;;;;;;;;5505735;25;20127;-76
2024/04/23 00:28:19;;;;;;;37.67;35.78;;;;;;;;;;5502681;25;20001;-76
2024/04/23 00:31:05;;;;;;;37.72;35.72;;;;;;;;;;5476002;26;20255;-76
2024/04/23 00:33:51;;;;;;;35.95;34.05;;;;;;;;;;5476103;25;20017;-76
2024/04/23 00:36:36;;;;;;;38.15;36.08;;;;;;;;;;5474502;25;20014;-76
2024/04/23 00:39:23;;;;;;;36.42;34.53;;;;;;;;;;5497411;25;20422;-76
2024/04/23 00:42:08;;;;;;;34.47;32.67;;;;;;;;;;5475513;26;20020;-75
2024/04/23 00:44:54;;;;;;;38.65;36.65;;;;;;;;;;5489355;26;20813;-75
2024/04/23 00:47:40;;;;;;;36.00;34.17;;;;;;;;;;5493153;25;20010;-76
2024/04/23 00:50:27;;;;;;;34.78;32.95;;;;;;;;;;5490777;26;21232;-75
2024/04/23 00:53:13;;;;;;;36.17;34.28;;;;;;;;;;5491582;26;20014;-76
2024/04/23 00:55:59;;;;;;;35.53;33.63;;;;;;;;;;5493778;26;20431;-76
2024/04/23 00:58:45;;;;;;;35.22;33.20;;;;;;;;;;5491770;26;20014;-75
2024/04/23 01:01:35;;;;;;;33.90;32.08;;;;;;;;;;5491313;25;20428;-76
2024/04/23 01:04:21;;;;;;;32.70;30.92;;;;;;;;;;5491595;26;20016;-76
2024/04/23 01:07:07;;;;;;;34.08;32.28;;;;;;;;;;5491320;26;20443;-76
2024/04/23 01:09:52;;;;;;;33.60;31.80;;;;;;;;;;5490020;26;20678;-76
2024/04/23 01:12:38;;;;;;;32.88;31.05;;;;;;;;;;5476140;26;20013;-75
2024/04/23 01:15:25;;;;;;;35.75;33.78;;;;;;;;;;5488470;26;20042;-76
2024/04/23 01:18:11;;;;;;;32.72;31.02;;;;;;;;;;5493075;26;20013;-76
2024/04/23 01:20:59;;;;;;;34.58;32.78;;;;;;;;;;5489743;26;20454;-76
2024/04/23 01:23:49;;;;;;;31.13;29.52;;;;;;;;;;5494879;26;20757;-76
2024/04/23 01:26:35;;;;;;;31.38;29.77;;;;;;;;;;5491336;26;20043;-76
2024/04/23 01:29:21;;;;;;;31.73;30.02;;;;;;;;;;5493026;26;20073;-76
2024/04/23 01:32:08;;;;;;;32.45;30.65;;;;;;;;;;5488092;26;20079;-76
2024/04/23 01:34:55;;;;;;;33.78;31.90;;;;;;;;;;5498036;26;20087;-76
2024/04/23 01:37:43;;;;;;;33.17;31.45;;;;;;;;;;5502465;26;20013;-76
2024/04/23 01:40:29;;;;;;;31.23;29.63;;;;;;;;;;5509220;25;20006;-76
2024/04/23 01:43:15;;;;;;;31.40;29.75;;;;;;;;;;5505785;25;20092;-76
2024/04/23 01:46:03;;;;;;;33.53;31.77;;;;;;;;;;5506288;25;19997;-76
2024/04/23 01:48:49;;;;;;;30.75;29.15;;;;;;;;;;5499544;26;20090;-76
2024/04/23 01:51:35;;;;;;;31.67;30.05;;;;;;;;;;5502364;26;20442;-75
2024/04/23 01:54:20;;;;;;;32.00;30.30;;;;;;;;;;5498816;25;20526;-76
2024/04/23 01:57:07;;;;;;;30.35;28.75;;;;;;;;;;5491511;25;20445;-75
2024/04/23 01:59:58;;;;;;;29.98;28.38;;;;;;;;;;5498795;26;19998;-75
2024/04/23 02:02:45;;;;;;;32.20;30.48;;;;;;;;;;5499840;26;20422;-75
2024/04/23 02:05:31;;;;;;;29.02;27.52;;;;;;;;;;5498020;25;20001;-75
2024/04/23 02:08:17;;;;;;;31.27;29.67;;;;;;;;;;5499715;26;19998;-75
2024/04/23 02:11:03;;;;;;;29.08;27.58;;;;;;;;;;5493956;26;20033;-75
2024/04/23 02:13:50;;;;;;;28.75;27.25;;;;;;;;;;5474277;26;20189;-75
2024/04/23 02:16:36;;;;;;;29.42;27.90;;;;;;;;;;5503120;26;20005;-75
2024/04/23 02:19:21;;;;;;;27.83;26.33;;;;;;;;;;5504230;26;20001;-75
2024/04/23 02:22:07;;;;;;;29.02;27.50;;;;;;;;;;5505300;26;20033;-75
2024/04/23 02:24:53;;;;;;;29.92;28.33;;;;;;;;;;5490565;26;20005;-75
2024/04/23 02:27:38;;;;;;;28.73;27.23;;;;;;;;;;5509096;26;20009;-75
2024/04/23 02:30:24;;;;;;;27.50;26.05;;;;;;;;;;5502557;26;20009;-75
2024/04/23 02:33:11;;;;;;;27.70;26.20;;;;;;;;;;5466509;26;20005;-76
2024/04/23 02:35:57;;;;;;;29.20;27.58;;;;;;;;;;5502309;26;20005;-75
2024/04/23 02:38:42;;;;;;;28.27;26.77;;;;;;;;;;5497660;25;20049;-76
2024/04/23 02:41:28;;;;;;;28.33;26.83;;;;;;;;;;5472787;26;20006;-75
2024/04/23 02:44:14;;;;;;;28.45;26.90;;;;;;;;;;5498622;26;20024;-75
2024/04/23 02:46:59;;;;;;;28.85;27.33;;;;;;;;;;5476475;26;20016;-75
2024/04/23 02:49:45;;;;;;;29.73;28.20;;;;;;;;;;5478010;26;20002;-75
2024/04/23 02:52:30;;;;;;;28.77;27.25;;;;;;;;;;5506831;25;20001;-75
2024/04/23 02:55:16;;;;;;;27.60;26.17;;;;;;;;;;5477133;26;19998;-75
2024/04/23 02:58:01;;;;;;;27.88;26.40;;;;;;;;;;5473817;26;20009;-75
2024/04/23 03:00:47;;;;;;;27.67;26.10;;;;;;;;;;5481997;26;20017;-75
2024/04/23 03:03:33;;;;;;;27.40;25.90;;;;;;;;;;5493726;26;19994;-75
2024/04/23 03:06:19;;;;;;;25.65;24.25;;;;;;;;;;5497013;26;19995;-75
2024/04/23 03:09:04;;;;;;;26.77;25.27;;;;;;;;;;5476673;26;20016;-75
2024/04/23 03:11:51;;;;;;;25.85;24.45;;;;;;;;;;5492559;25;19998;-75
2024/04/23 03:14:37;;;;;;;27.10;25.70;;;;;;;;;;5492613;26;20024;-75
2024/04/23 03:17:22;;;;;;;25.60;24.10;;;;;;;;;;5495516;26;20001;-75
2024/04/23 03:20:08;;;;;;;25.88;24.48;;;;;;;;;;5492551;26;20070;-75
2024/04/23 03:22:53;;;;;;;24.65;23.35;;;;;;;;;;5495601;25;20070;-75
2024/04/23 03:25:39;;;;;;;24.00;22.70;;;;;;;;;;5492003;26;20002;-75
2024/04/23 03:28:25;;;;;;;23.42;22.17;;;;;;;;;;5492195;26;19998;-75
2024/04/23 03:31:11;;;;;;;25.85;24.42;;;;;;;;;;5501405;25;20034;-75
2024/04/23 03:33:56;;;;;;;24.90;23.60;;;;;;;;;;5482146;26;20013;-75
2024/04/23 03:36:42;;;;;;;24.42;23.13;;;;;;;;;;5498064;26;20429;-75
2024/04/23 03:39:28;;;;;;;25.88;24.48;;;;;;;;;;5500773;26;19995;-74
2024/04/23 03:42:13;;;;;;;25.73;24.33;;;;;;;;;;5500962;26;20171;-74
2024/04/23 03:44:59;;;;;;;28.83;27.00;;;;;;;;;;5497656;25;20314;-75
2024/04/23 03:47:44;;;;;;;26.75;25.35;;;;;;;;;;5502677;26;20020;-75
2024/04/23 03:50:30;;;;;;;26.75;25.20;;;;;;;;;;5499143;26;20002;-74
2024/04/23 03:53:16;;;;;;;26.73;25.25;;;;;;;;;;5497682;26;19998;-74
2024/04/23 03:56:01;;;;;;;26.27;24.88;;;;;;;;;;5500510;25;20017;-74
2024/04/23 03:58:47;;;;;;;27.73;25.88;;;;;;;;;;5498882;26;20001;-74
2024/04/23 04:01:32;;;;;;;27.35;25.85;;;;;;;;;;5475220;26;20601;-74
2024/04/23 04:07:22;;;;;;;27.05;25.38;;;;;;;;;;5503918;26;20384;-74
2024/04/23 04:10:08;;;;;;;26.33;24.92;;;;;;;;;;5474124;26;20021;-74
2024/04/23 04:12:53;;;;;;;25.65;24.25;;;;;;;;;;5500164;26;20021;-74
2024/04/23 04:15:39;;;;;;;26.15;24.75;;;;;;;;;;5503648;25;20382;-74
2024/04/23 04:18:25;;;;;;;26.80;25.40;;;;;;;;;;5495923;26;20038;-74
2024/04/23 04:21:10;;;;;;;24.55;23.20;;;;;;;;;;5497930;26;20089;-74
2024/04/23 04:23:56;;;;;;;28.67;26.73;;;;;;;;;;5501303;25;20002;-74
2024/04/23 04:26:41;;;;;;;27.95;26.45;;;;;;;;;;5496410;25;20557;-74
2024/04/23 04:29:27;;;;;;;26.80;25.30;;;;;;;;;;5502079;25;20641;-75
2024/04/23 04:32:13;;;;;;;28.52;26.90;;;;;;;;;;5497058;26;20049;-75
2024/04/23 04:34:58;;;;;;;27.23;25.75;;;;;;;;;;5500125;26;20878;-75
2024/04/23 04:37:44;;;;;;;28.20;26.70;;;;;;;;;;5501991;26;20060;-75
2024/04/23 04:40:31;;;;;;;28.00;26.48;;;;;;;;;;5497647;25;20627;-75
2024/04/23 04:43:17;;;;;;;27.90;26.40;;;;;;;;;;5501082;25;20667;-75
2024/04/23 04:46:02;;;;;;;27.02;25.52;;;;;;;;;;5498894;26;20017;-76
2024/04/23 04:48:48;;;;;;;27.70;26.10;;;;;;;;;;5498791;25;20009;-76
2024/04/23 04:51:33;;;;;;;27.63;26.13;;;;;;;;;;5502437;26;20005;-76
2024/04/23 04:54:19;;;;;;;26.67;25.17;;;;;;;;;;5495767;26;20082;-75
2024/04/23 04:57:05;;;;;;;25.55;24.15;;;;;;;;;;5500693;26;20025;-75
2024/04/23 04:59:50;;;;;;;27.60;26.13;;;;;;;;;;5504006;25;20297;-75
2024/04/23 05:02:37;;;;;;;28.10;26.60;;;;;;;;;;5500820;26;20093;-76
2024/04/23 05:05:23;;;;;;;27.77;26.27;;;;;;;;;;5500907;26;20032;-76
2024/04/23 05:08:09;;;;;;;26.17;24.73;;;;;;;;;;5496445;26;20006;-76
2024/04/23 05:10:54;;;;;;;27.40;25.95;;;;;;;;;;5497308;26;20025;-75
2024/04/23 05:13:40;;;;;;;26.50;25.10;;;;;;;;;;5500549;25;20017;-76
2024/04/23 05:16:25;;;;;;;27.77;26.25;;;;;;;;;;5492035;25;20028;-77
2024/04/23 05:19:11;;;;;;;27.42;25.70;;;;;;;;;;5492360;25;20017;-76
2024/04/23 05:21:57;;;;;;;26.50;25.10;;;;;;;;;;5496054;25;20017;-77
2024/04/23 05:24:43;;;;;;;27.27;25.85;;;;;;;;;;5479774;26;20723;-72
2024/04/23 05:27:28;;;;;;;26.85;25.40;;;;;;;;;;5500767;26;20001;-77
2024/04/23 05:32:46;;;;;;;26.48;25.08;;;;;;;;;;5497740;26;20055;-77
2024/04/23 05:33:20;;;;;;;26.60;25.20;;;;;;;;;;5498169;26;20014;-77
2024/04/23 05:36:06;;;;;;;31.92;30.23;;;;;;;;;;5498083;26;20364;-77
2024/04/23 05:38:54;;;;;;;31.05;29.40;;;;;;;;;;5503336;26;20303;-77
2024/04/23 05:41:40;;;;;;;36.88;34.97;;;;;;;;;;5496266;26;20017;-77
2024/04/23 05:44:26;;;;;;;35.33;33.50;;;;;;;;;;5499110;26;20021;-66
2024/04/23 05:47:11;;;;;;;37.65;35.75;;;;;;;;;;5495936;26;20066;-76
2024/04/23 05:50:35;;;;;;;40.92;38.83;;;;;;;;;;5474368;26;20022;-76
2024/04/23 05:53:59;;;;;;;42.70;40.50;;;;;;;;;;5495550;26;20006;-76
2024/04/23 05:56:45;;;;;;;46.70;44.35;;;;;;;;;;5495111;26;20311;-76
2024/04/23 05:59:30;;;;;;;49.53;46.97;;;;;;;;;;5494390;25;20005;-77
2024/04/23 06:02:16;;;;;;;49.65;47.10;;;;;;;;;;5501164;25;20002;-76
2024/04/23 06:05:02;;;;;;;36.05;34.17;;;;;;;;;;5498511;26;20013;-77
2024/04/23 06:07:47;;;;;;;38.75;36.75;;;;;;;;;;5498554;26;20014;-76
2024/04/23 06:10:33;;;;;;;37.95;35.85;;;;;;;;;;5466430;26;20007;-76
2024/04/23 06:13:18;;;;;;;29.52;27.80;;;;;;;;;;5492013;26;20010;-77
2024/04/23 06:16:10;;;;;;;29.58;28.08;;;;;;;;;;5500586;26;20002;-77
2024/04/23 06:18:55;;;;;;;;;;;;;;;;;;5502259;26;20319;-77
2024/04/23 06:21:41;;;;;;;33.33;31.63;;;;;;;;;;5497122;26;19931;-77
2024/04/23 06:24:27;;;;;;;31.05;29.15;;;;;;;;;;5494609;26;20033;-76
2024/04/23 06:27:14;;;;;;;31.48;29.80;;;;;;;;;;5472251;26;20006;-77
2024/04/23 06:30:11;;;;;;;30.77;29.17;;;;;;;;;;5499826;26;20002;-77
2024/04/23 06:32:56;;;;;;;42.53;40.33;;;;;;;;;;5501754;26;20017;-76
2024/04/23 06:35:42;;;;;;;46.60;44.20;;;;;;;;;;5497957;26;20351;-77
2024/04/23 06:38:28;;;;;;;49.78;47.15;;;;;;;;;;5469711;26;20006;-76
2024/04/23 06:41:13;;;;;;;46.53;44.13;;;;;;;;;;5496649;26;20072;-76
2024/04/23 06:43:59;;;;;;;52.72;50.08;;;;;;;;;;5495789;26;20006;-73
2024/04/23 06:46:45;;;;;;;65.35;61.65;;;;;;;;;;5503454;25;20051;-73
2024/04/23 06:49:31;;;;;;;64.22;61.00;;;;;;;;;;5504362;26;20030;-74
2024/04/23 06:52:17;;;;;;;63.78;60.60;;;;;;;;;;5497825;26;20018;-70
2024/04/23 06:55:02;;;;;;;51.25;47.97;;;;;;;;;;5501893;25;20005;-75
2024/04/23 06:57:52;;;;;;;68.97;65.50;;;;;;;;;;5498815;26;20042;-75
2024/04/23 07:00:37;;;;;;;66.15;62.80;;;;;;;;;;5501992;25;20334;-75
2024/04/23 07:03:23;;;;;;;69.82;66.30;;;;;;;;;;5498260;25;20725;-75
2024/04/23 07:06:08;;;;;;;73.05;69.30;;;;;;;;;;5498143;25;20062;-75
2024/04/23 07:08:54;;;;;;;77.20;73.38;;;;;;;;;;5501064;25;20369;-74
2024/04/23 07:11:40;;;;;;;79.07;75.15;;;;;;;;;;5495977;26;20018;-75
2024/04/23 07:14:25;;;;;;;99.65;94.60;;;;;;;;;;5504135;26;20017;-75
2024/04/23 07:17:11;;;;;;;91.25;86.68;;;;;;;;;;5495970;25;20067;-76
2024/04/23 07:19:57;;;;;;;94.78;90.10;;;;;;;;;;5500677;26;20414;-75
2024/04/23 07:22:42;;;;;;;102.35;97.32;;;;;;;;;;5504778;26;20029;-75
2024/04/23 07:25:28;;;;;;;97.55;92.72;;;;;;;;;;5469411;26;20417;-75
2024/04/23 07:28:13;;;;;;;91.60;87.05;;;;;;;;;;5496177;26;20689;-75
2024/04/23 07:31:00;;;;;;;98.90;94.00;;;;;;;;;;5499005;26;20021;-67
2024/04/23 07:33:46;;;;;;;93.78;89.13;;;;;;;;;;5502131;26;20782;-67
2024/04/23 07:36:31;;;;;;;93.80;89.15;;;;;;;;;;5481454;26;20025;-67
2024/04/23 07:39:17;;;;;;;103.88;98.78;;;;;;;;;;5501833;25;20003;-67
2024/04/23 07:42:03;;;;;;;124.35;118.20;;;;;;;;;;5505382;25;20009;-76
2024/04/23 07:44:48;;;;;;;115.32;109.65;;;;;;;;;;5507220;26;20050;-75
2024/04/23 07:47:34;;;;;;;93.30;88.50;;;;;;;;;;5476799;26;20001;-75
2024/04/23 07:50:20;;;;;;;108.10;102.75;;;;;;;;;;5504388;26;20415;-75
2024/04/23 07:53:06;;;;;;;124.63;118.47;;;;;;;;;;5499000;26;20055;-75
2024/04/23 07:55:52;;;;;;;112.95;107.38;;;;;;;;;;5503913;26;20001;-75
2024/04/23 07:58:38;;;;;;;91.20;86.65;;;;;;;;;;5501529;26;20001;-75
2024/04/23 08:01:23;;;;;;;98.10;93.20;;;;;;;;;;5501746;26;20132;-76
2024/04/23 08:04:09;;;;;;;106.93;101.47;;;;;;;;;;5495857;26;21238;-76
2024/04/23 08:06:54;;;;;;;81.18;77.05;;;;;;;;;;5504054;26;20009;-75
2024/04/23 08:09:40;;;;;;;84.35;80.15;;;;;;;;;;5500058;26;20006;-75
2024/04/23 08:12:25;;;;;;;94.78;90.10;;;;;;;;;;5496743;26;20064;-75
2024/04/23 08:15:12;;;;;;;78.22;74.28;;;;;;;;;;5504856;26;20011;-74
2024/04/23 08:17:57;;;;;;;87.45;83.10;;;;;;;;;;5476117;26;20014;-73
2024/04/23 08:20:43;;;;;;;83.35;79.22;;;;;;;;;;5500151;26;20023;-74
2024/04/23 08:23:29;;;;;;;94.63;89.93;;;;;;;;;;5502961;26;20012;-74
2024/04/23 08:26:15;;;;;;;88.85;84.38;;;;;;;;;;5500932;26;20078;-74
2024/04/23 08:29:01;;;;;;;87.30;82.97;;;;;;;;;;5499319;26;20046;-74
2024/04/23 08:31:47;;;;;;;75.38;71.63;;;;;;;;;;5498811;26;20009;-75
2024/04/23 08:34:32;;;;;;;83.63;79.50;;;;;;;;;;5505014;26;19997;-75
2024/04/23 08:37:18;;;;;;;90.85;86.30;;;;;;;;;;5474167;26;20083;-75
2024/04/23 08:40:04;;;;;;;89.78;85.38;;;;;;;;;;5496848;25;20692;-76
2024/04/23 08:42:54;;;;;;;85.25;81.05;;;;;;;;;;5499759;25;20001;-74
2024/04/23 08:45:40;;;;;;;87.63;83.15;;;;;;;;;;5500796;25;20013;-75
2024/04/23 08:48:27;;;;;;;88.25;83.88;;;;;;;;;;5498367;25;20352;-76
2024/04/23 08:51:13;;;;;;;88.28;83.88;;;;;;;;;;5498492;25;20467;-74
2024/04/23 08:53:59;;;;;;;74.43;70.60;;;;;;;;;;5497633;26;20595;-75
2024/04/23 08:56:45;;;;;;;78.95;75.03;;;;;;;;;;5495233;26;20447;-75
2024/04/23 08:59:31;;;;;;;95.25;90.55;;;;;;;;;;5502347;26;20016;-75
2024/04/23 09:02:25;;;;;;;67.93;64.53;;;;;;;;;;5503635;26;20012;-75
2024/04/23 09:05:11;;;;;;;78.03;74.13;;;;;;;;;;5496981;26;20041;-74
2024/04/23 09:07:57;;;;;;;60.45;57.45;;;;;;;;;;5500216;26;20172;-75
2024/04/23 09:10:43;;;;;;;72.72;69.03;;;;;;;;;;5496919;26;20014;-75
2024/04/23 09:13:29;;;;;;;97.40;91.65;;;;;;;;;;5499182;26;20307;-74
2024/04/23 09:16:14;;;;;;;97.53;92.72;;;;;;;;;;5495579;26;20021;-75
2024/04/23 09:19:00;;;;;;;115.65;109.85;;;;;;;;;;5497618;26;20001;-76
2024/04/23 09:21:46;;;;;;;97.32;92.53;;;;;;;;;;5499757;26;20005;-75
2024/04/23 09:24:33;;;;;;;103.22;98.10;;;;;;;;;;5504419;25;20041;-73
2024/04/23 09:27:19;;;;;;;100.90;95.93;;;;;;;;;;5499212;26;20005;-74
2024/04/23 09:30:05;;;;;;;109.72;104.32;;;;;;;;;;5475390;26;20039;-74
2024/04/23 09:33:02;;;;;;;96.75;91.88;;;;;;;;;;5473021;25;20016;-73
2024/04/23 09:35:59;;;;;;;102.35;97.30;;;;;;;;;;5497520;26;20657;-74
2024/04/23 09:38:45;;;;;;;104.50;99.32;;;;;;;;;;5498695;26;20005;-74
2024/04/23 09:41:31;;;;;;;96.03;91.25;;;;;;;;;;5495667;26;20001;-74
2024/04/23 09:44:19;;;;;;;96.80;91.97;;;;;;;;;;5500139;26;20014;-74
2024/04/23 09:47:06;;;;;;;102.68;97.60;;;;;;;;;;5496533;26;20005;-74
2024/04/23 09:49:55;;;;;;;94.13;89.38;;;;;;;;;;5502103;26;20072;-74
2024/04/23 09:52:43;;;;;;;100.50;95.53;;;;;;;;;;5501381;26;20016;-73
2024/04/23 09:55:29;;;;;;;125.43;119.07;;;;;;;;;;5495367;26;20020;-74
2024/04/23 09:58:15;;;;;;;118.55;112.65;;;;;;;;;;5499703;26;20002;-75
2024/04/23 10:01:01;;;;;;;145.15;137.98;;;;;;;;;;5497085;25;20026;-74
2024/04/23 10:03:50;;;;;;;101.30;96.28;;;;;;;;;;5495716;25;20031;-73
2024/04/23 10:06:42;;;;;;;101.43;96.38;;;;;;;;;;5494808;26;20013;-73
2024/04/23 10:09:30;;;;;;;127.25;120.90;;;;;;;;;;5494588;25;20047;-74
2024/04/23 10:12:22;;;;;;;163.98;155.85;;;;;;;;;;5497578;26;20074;-74
2024/04/23 10:15:34;;;;;;;88.63;84.20;;;;;;;;;;5469271;26;20005;-73
2024/04/23 10:18:32;;;;;;;108.10;102.75;;;;;;;;;;5495189;26;20074;-73
2024/04/23 10:21:24;;;;;;;84.97;80.75;;;;;;;;;;5497424;25;20001;-74
2024/04/23 10:24:12;;;;;;;152.35;144.75;;;;;;;;;;5493787;26;20002;-72
2024/04/23 10:26:58;;;;;;;85.15;80.88;;;;;;;;;;5475889;26;20326;-74
2024/04/23 10:29:45;;;;;;;72.90;69.22;;;;;;;;;;5496211;26;20027;-73
2024/04/23 10:32:32;;;;;;;130.10;123.55;;;;;;;;;;5497595;26;21727;-74
2024/04/23 10:35:19;;;;;;;163.07;154.98;;;;;;;;;;5469141;26;20006;-73
2024/04/23 10:38:06;;;;;;;158.73;150.73;;;;;;;;;;5500951;26;20009;-74
2024/04/23 10:40:53;;;;;;;109.53;103.97;;;;;;;;;;5508568;26;20071;-77
2024/04/23 10:43:39;;;;;;;115.68;109.93;;;;;;;;;;5501452;26;20001;-78
2024/04/23 10:46:25;;;;;;;67.13;63.78;;;;;;;;;;5504741;26;20024;-75
2024/04/23 10:49:18;;;;;;;129.45;123.05;;;;;;;;;;5474760;26;20056;-77
2024/04/23 10:52:04;;;;;;;105.82;100.57;;;;;;;;;;5497835;26;20119;-75
2024/04/23 10:54:50;;;;;;;180.35;171.38;;;;;;;;;;5506097;26;20032;-76
2024/04/23 10:57:36;;;;;;;61.60;58.45;;;;;;;;;;5504765;26;20009;-75
2024/04/23 11:00:37;;;;;;;97.15;92.30;;;;;;;;;;5501441;26;20006;-74
2024/04/23 11:03:30;;;;;;;167.82;159.40;;;;;;;;;;5501923;25;20017;-76
2024/04/23 11:06:35;;;;;;;94.50;89.75;;;;;;;;;;5472463;26;20455;-74
2024/04/23 11:09:22;;;;;;;170.48;161.85;;;;;;;;;;5501039;25;20005;-76
2024/04/23 11:12:23;;;;;;;121.97;115.93;;;;;;;;;;5499087;25;20025;-75
2024/04/23 11:15:18;;;;;;;;;;;;;;;;;;5504252;25;20024;-77
2024/04/23 11:18:04;;;;;;;83.18;79.03;;;;;;;;;;5505003;25;19999;-76
2024/04/23 11:21:01;;;;;;;117.15;111.38;;;;;;;;;;5501483;26;20089;-77
2024/04/23 11:23:49;;;;;;;86.93;82.60;;;;;;;;;;5483904;26;19997;-77
2024/04/23 11:26:36;;;;;;;88.93;84.50;;;;;;;;;;5501056;26;20476;-76
2024/04/23 11:29:22;;;;;;;85.03;80.80;;;;;;;;;;5469885;25;20091;-77
2024/04/23 11:32:08;;;;;;;74.80;71.07;;;;;;;;;;5502692;26;20066;-76
2024/04/23 11:34:54;;;;;;;81.25;77.15;;;;;;;;;;5502478;26;20407;-77
2024/04/23 11:37:39;;;;;;;97.38;92.55;;;;;;;;;;5499421;25;20672;-77
2024/04/23 11:40:25;;;;;;;94.72;89.90;;;;;;;;;;5499667;26;20427;-77
2024/04/23 11:43:11;;;;;;;90.45;85.95;;;;;;;;;;5505936;25;20003;-78
2024/04/23 11:45:57;;;;;;;77.85;73.97;;;;;;;;;;5497702;26;20720;-76
2024/04/23 11:48:43;;;;;;;78.95;74.95;;;;;;;;;;5502752;26;20357;-74
2024/04/23 11:51:29;;;;;;;85.10;80.88;;;;;;;;;;5500492;26;20075;-77
2024/04/23 11:54:15;;;;;;;84.22;80.05;;;;;;;;;;5501379;25;20013;-76
2024/04/23 11:57:01;;;;;;;83.68;79.53;;;;;;;;;;5496115;25;20009;-77
2024/04/23 11:59:49;;;;;;;116.78;110.97;;;;;;;;;;5502227;25;20029;-77
2024/04/23 12:02:34;;;;;;;89.57;85.13;;;;;;;;;;5483707;26;20078;-76
2024/04/23 12:05:21;;;;;;;85.78;81.53;;;;;;;;;;5494302;25;20002;-76
2024/04/23 12:08:07;;;;;;;84.68;80.47;;;;;;;;;;5480239;26;20006;-77
2024/04/23 12:10:55;;;;;;;87.70;83.32;;;;;;;;;;5470259;25;19998;-77
2024/04/23 12:13:47;;;;;;;135.88;128.77;;;;;;;;;;5495129;25;19993;-77
2024/04/23 12:16:32;;;;;;;122.10;116.05;;;;;;;;;;5499935;26;19999;-76
2024/04/23 12:19:18;;;;;;;88.97;84.53;;;;;;;;;;5505007;25;20016;-76
2024/04/23 12:22:15;;;;;;;115.13;109.40;;;;;;;;;;5502204;26;20002;-77
2024/04/23 12:25:01;;;;;;;120.43;114.47;;;;;;;;;;5500578;26;20055;-76
2024/04/23 12:27:48;;;;;;;82.18;78.07;;;;;;;;;;5498154;26;20020;-77
2024/04/23 12:30:34;;;;;;;83.53;79.40;;;;;;;;;;5497915;26;20705;-77
2024/04/23 12:33:20;;;;;;;108.00;102.53;;;;;;;;;;5498765;26;20024;-79
2024/04/23 12:36:08;;;;;;;135.63;128.90;;;;;;;;;;5500851;25;20012;-77
2024/04/23 12:38:54;;;;;;;130.75;124.28;;;;;;;;;;5498244;26;20040;-78
2024/04/23 12:41:39;;;;;;;145.85;138.60;;;;;;;;;;5502628;26;20087;-77
2024/04/23 12:44:25;;;;;;;140.93;133.88;;;;;;;;;;5500981;26;20053;-78
2024/04/23 12:47:11;;;;;;;115.53;109.80;;;;;;;;;;5481579;26;20012;-77
2024/04/23 12:49:56;;;;;;;144.38;137.13;;;;;;;;;;5493116;26;20366;-77
2024/04/23 12:52:42;;;;;;;155.23;147.50;;;;;;;;;;5499937;26;20084;-77
2024/04/23 12:55:29;;;;;;;135.38;128.68;;;;;;;;;;5502024;26;20073;-77
2024/04/23 12:58:15;;;;;;;160.23;152.32;;;;;;;;;;5493791;26;20495;-76
2024/04/23 13:01:01;;;;;;;145.00;137.82;;;;;;;;;;5497847;25;20439;-75
2024/04/23 13:03:47;;;;;;;130.55;124.05;;;;;;;;;;5498715;26;19993;-74
2024/04/23 13:06:32;;;;;;;114.28;108.63;;;;;;;;;;5495491;26;20709;-76
2024/04/23 13:09:18;;;;;;;124.22;117.80;;;;;;;;;;5498540;25;20013;-77
2024/04/23 13:12:09;;;;;;;105.25;100.07;;;;;;;;;;5484442;25;19998;-77
2024/04/23 13:14:55;;;;;;;132.55;125.97;;;;;;;;;;5503316;26;20020;-75
2024/04/23 13:17:40;;;;;;;145.45;138.23;;;;;;;;;;5500680;25;20020;-76
2024/04/23 13:20:26;;;;;;;136.48;129.68;;;;;;;;;;5500001;26;20016;-74
2024/04/23 13:23:12;;;;;;;112.15;106.65;;;;;;;;;;5503187;26;20016;-75
2024/04/23 13:25:57;;;;;;;134.30;127.65;;;;;;;;;;5492129;25;20002;-76
2024/04/23 13:28:45;;;;;;;144.07;136.88;;;;;;;;;;5473469;25;20001;-74
2024/04/23 13:31:31;;;;;;;146.52;139.25;;;;;;;;;;5497498;26;20017;-74
2024/04/23 13:34:17;;;;;;;136.45;129.65;;;;;;;;;;5502323;26;20028;-73
2024/04/23 13:37:04;;;;;;;133.73;127.10;;;;;;;;;;5473470;26;20017;-74
2024/04/23 13:39:49;;;;;;;121.53;115.50;;;;;;;;;;5500710;25;20354;-75
2024/04/23 13:42:36;;;;;;;122.55;116.45;;;;;;;;;;5496642;26;20448;-74
2024/04/23 13:45:22;;;;;;;127.22;120.93;;;;;;;;;;5496460;26;20369;-76
2024/04/23 13:48:09;;;;;;;86.07;81.82;;;;;;;;;;5491643;25;20012;-74
2024/04/23 13:50:55;;;;;;;94.38;89.72;;;;;;;;;;5498047;26;20689;-73
2024/04/23 13:53:40;;;;;;;96.25;91.50;;;;;;;;;;5502237;25;20416;-68
2024/04/23 13:56:26;;;;;;;118.75;112.75;;;;;;;;;;5499141;25;20545;-67
2024/04/23 13:59:11;;;;;;;120.55;114.57;;;;;;;;;;5496803;25;21016;-67
2024/04/23 14:02:01;;;;;;;109.47;104.07;;;;;;;;;;5497622;26;20706;-68
2024/04/23 14:04:46;;;;;;;106.22;100.97;;;;;;;;;;5499199;25;20002;-67
2024/04/23 14:07:32;;;;;;;135.05;128.38;;;;;;;;;;5499537;25;20002;-67
2024/04/23 14:10:18;;;;;;;103.05;97.95;;;;;;;;;;5501126;25;20451;-67
2024/04/23 14:13:03;;;;;;;122.85;116.72;;;;;;;;;;5474906;26;20022;-67
2024/04/23 14:15:49;;;;;;;106.20;100.95;;;;;;;;;;5505068;26;20009;-66
2024/04/23 14:18:35;;;;;;;85.60;81.30;;;;;;;;;;5506539;25;20005;-67
2024/04/23 14:21:20;;;;;;;131.23;124.72;;;;;;;;;;5507835;26;20045;-67
2024/04/23 14:24:06;;;;;;;130.85;124.35;;;;;;;;;;5509157;25;20013;-67
2024/04/23 14:26:51;;;;;;;122.18;116.07;;;;;;;;;;5478818;26;20123;-66
2024/04/23 14:29:38;;;;;;;103.18;98.07;;;;;;;;;;5506920;25;20002;-66
2024/04/23 14:32:24;;;;;;;75.78;71.97;;;;;;;;;;5505700;26;20014;-65
2024/04/23 14:35:09;;;;;;;79.22;75.22;;;;;;;;;;5502934;25;20006;-65
2024/04/23 14:37:55;;;;;;;112.03;106.47;;;;;;;;;;5505786;25;20022;-65
2024/04/23 14:40:40;;;;;;;101.63;96.60;;;;;;;;;;5508654;25;20010;-66
2024/04/23 14:43:26;;;;;;;75.07;71.38;;;;;;;;;;5503179;25;20017;-66
2024/04/23 14:46:12;;;;;;;90.53;86.03;;;;;;;;;;5505288;25;20010;-65
2024/04/23 14:48:58;;;;;;;87.90;83.55;;;;;;;;;;5506858;25;20016;-66
2024/04/23 14:51:43;;;;;;;79.65;75.65;;;;;;;;;;5505217;25;20002;-65
2024/04/23 14:54:29;;;;;;;79.30;75.35;;;;;;;;;;5506442;25;19998;-66
2024/04/23 14:57:15;;;;;;;68.68;65.22;;;;;;;;;;5505806;26;20143;-66
2024/04/23 15:00:01;;;;;;;72.70;69.05;;;;;;;;;;5507836;25;20039;-65
2024/04/23 15:02:46;;;;;;;73.53;69.82;;;;;;;;;;5478596;26;20014;-67
2024/04/23 15:05:32;;;;;;;79.90;75.28;;;;;;;;;;5505630;25;20005;-66
2024/04/23 15:08:17;;;;;;;78.43;74.45;;;;;;;;;;5508637;25;20103;-67
2024/04/23 15:11:04;;;;;;;76.88;73.00;;;;;;;;;;5506727;26;20006;-67
2024/04/23 15:13:50;;;;;;;79.72;75.78;;;;;;;;;;5509409;25;19998;-67
2024/04/23 15:16:36;;;;;;;80.00;76.00;;;;;;;;;;5506606;26;20031;-65
2024/04/23 15:19:21;;;;;;;76.22;72.43;;;;;;;;;;5507725;25;20001;-67
2024/04/23 15:22:07;;;;;;;79.70;75.75;;;;;;;;;;5513611;25;20009;-68
2024/04/23 15:24:53;;;;;;;76.20;72.40;;;;;;;;;;5502243;26;20695;-67
2024/04/23 15:27:38;;;;;;;85.18;80.95;;;;;;;;;;5500907;26;20053;-68
2024/04/23 15:30:26;;;;;;;81.28;77.18;;;;;;;;;;5505752;26;19998;-69
2024/04/23 15:33:15;;;;;;;80.35;76.35;;;;;;;;;;5498311;25;20001;-67
2024/04/23 15:36:01;;;;;;;75.40;71.63;;;;;;;;;;5495952;25;20091;-69
2024/04/23 15:38:47;;;;;;;68.75;65.10;;;;;;;;;;5479843;26;20016;-69
2024/04/23 15:41:32;;;;;;;68.85;65.40;;;;;;;;;;5472936;26;20046;-69
2024/04/23 15:44:18;;;;;;;68.43;64.63;;;;;;;;;;5504419;25;20045;-68
2024/04/23 15:47:03;;;;;;;65.47;62.17;;;;;;;;;;5498777;26;20009;-67
2024/04/23 15:49:49;;;;;;;66.07;62.67;;;;;;;;;;5479169;25;20001;-67
2024/04/23 15:52:35;;;;;;;68.82;65.43;;;;;;;;;;5500145;26;20028;-67
2024/04/23 15:55:20;;;;;;;69.97;66.47;;;;;;;;;;5495864;26;19994;-67
2024/04/23 15:58:06;;;;;;;77.18;73.32;;;;;;;;;;5501187;26;20001;-67
2024/04/23 16:00:51;;;;;;;70.05;66.55;;;;;;;;;;5502150;26;20024;-66
2024/04/23 16:03:38;;;;;;;69.88;66.38;;;;;;;;;;5471894;26;20001;-68
2024/04/23 16:06:24;;;;;;;74.28;70.57;;;;;;;;;;5500759;26;21120;-67